createdAt,value
2023-04-03T00:00:16.372Z,41.0
2023-04-03T00:05:16.434Z,40.9
2023-04-03T00:10:19.435Z,40.7
2023-04-03T00:15:19.354Z,40.6
2023-04-03T00:20:19.360Z,40.4
2023-04-03T00:25:19.357Z,40.3
2023-04-03T00:30:19.483Z,40.2
2023-04-03T00:35:16.437Z,40.1
2023-04-03T00:40:19.391Z,39.9
2023-04-03T00:45:16.444Z,39.8
2023-04-03T00:50:16.421Z,39.7
2023-04-03T00:55:19.508Z,39.6
2023-04-03T01:00:16.457Z,39.5
2023-04-03T01:05:19.481Z,39.4
2023-04-03T01:10:19.447Z,39.2
2023-04-03T01:15:16.434Z,39.1
2023-04-03T01:20:19.521Z,39.1
2023-04-03T01:25:16.674Z,39.1
2023-04-03T01:30:19.405Z,39.0
2023-04-03T01:35:16.457Z,38.9
2023-04-03T01:40:19.470Z,38.8
2023-04-03T01:45:19.421Z,38.7
2023-04-03T01:50:16.488Z,38.7
2023-04-03T01:55:19.451Z,38.6
2023-04-03T02:00:16.335Z,38.5
2023-04-03T02:05:40.547Z,38.5
2023-04-03T02:10:19.459Z,38.2
2023-04-03T02:15:16.443Z,38.0
2023-04-03T02:20:16.444Z,37.9
2023-04-03T02:25:19.524Z,37.8
2023-04-03T02:30:19.467Z,37.8
2023-04-03T02:35:19.408Z,37.7
2023-04-03T02:40:16.424Z,37.5
2023-04-03T02:45:19.510Z,37.4
2023-04-03T02:50:19.505Z,37.3
2023-04-03T02:55:19.432Z,37.2
2023-04-03T03:00:16.476Z,37.1
2023-04-03T03:05:16.521Z,37.0
2023-04-03T03:10:19.483Z,36.9
2023-04-03T03:15:19.460Z,36.8
2023-04-03T03:20:19.500Z,36.7
2023-04-03T03:25:16.523Z,36.6
2023-04-03T03:30:19.480Z,36.5
2023-04-03T03:35:19.457Z,36.4
2023-04-03T03:40:19.468Z,36.4
2023-04-03T03:45:16.530Z,36.3
2023-04-03T03:50:16.548Z,36.2
2023-04-03T03:55:19.516Z,36.1
2023-04-03T04:00:18.826Z,36.0
2023-04-03T04:05:18.722Z,35.9
2023-04-03T04:10:15.779Z,35.8
2023-04-03T04:15:18.775Z,35.8
2023-04-03T04:20:18.766Z,35.7
2023-04-03T04:25:18.712Z,35.6
2023-04-03T04:30:15.858Z,35.6
2023-04-03T04:35:16.958Z,35.6
2023-04-03T04:40:15.826Z,35.5
2023-04-03T04:45:18.782Z,35.4
2023-04-03T04:50:15.855Z,35.4
2023-04-03T04:55:18.779Z,35.3
2023-04-03T05:00:18.875Z,35.3
2023-04-03T05:05:15.874Z,35.2
2023-04-03T05:10:15.874Z,35.2
2023-04-03T05:15:15.813Z,35.1
2023-04-03T05:20:18.793Z,35.0
2023-04-03T05:25:18.746Z,34.9
2023-04-03T05:30:15.816Z,34.8
2023-04-03T05:35:18.809Z,34.8
2023-04-03T05:40:17.488Z,34.7
2023-04-03T05:45:15.790Z,34.6
2023-04-03T05:50:15.886Z,34.6
2023-04-03T05:55:15.798Z,34.5
2023-04-03T06:00:18.860Z,34.5
2023-04-03T06:05:18.762Z,34.5
2023-04-03T06:10:15.787Z,34.4
2023-04-03T06:15:18.796Z,34.4
2023-04-03T06:20:15.843Z,34.4
2023-04-03T06:25:15.824Z,34.3
2023-04-03T06:30:15.872Z,34.3
2023-04-03T06:35:18.919Z,34.2
2023-04-03T06:40:18.842Z,34.1
2023-04-03T06:45:18.778Z,34.0
2023-04-03T06:50:15.811Z,33.9
2023-04-03T06:55:15.841Z,33.9
2023-04-03T07:00:18.849Z,33.7
2023-04-03T07:05:18.813Z,33.6
2023-04-03T07:10:18.979Z,33.5
2023-04-03T07:15:15.880Z,33.5
2023-04-03T07:20:18.875Z,33.4
2023-04-03T07:25:15.853Z,33.4
2023-04-03T07:30:15.678Z,33.3
2023-04-03T07:35:18.870Z,33.2
2023-04-03T07:40:15.911Z,33.2
2023-04-03T07:45:18.908Z,33.1
2023-04-03T07:50:15.876Z,33.0
2023-04-03T07:55:18.867Z,33.0
2023-04-03T08:00:18.895Z,32.9
2023-04-03T08:05:15.857Z,32.9
2023-04-03T08:10:18.910Z,32.8
2023-04-03T08:15:18.833Z,32.8
2023-04-03T08:20:18.830Z,32.7
2023-04-03T08:25:15.968Z,32.6
2023-04-03T08:30:19.029Z,32.5
2023-04-03T08:35:19.079Z,32.5
2023-04-03T08:40:18.974Z,32.4
2023-04-03T08:45:16.062Z,32.3
2023-04-03T08:50:19.077Z,32.2
2023-04-03T08:55:18.899Z,32.1
2023-04-03T09:00:15.943Z,32.1
2023-04-03T09:05:15.941Z,31.9
2023-04-03T09:10:18.926Z,31.9
2023-04-03T09:15:24.831Z,31.8
2023-04-03T09:20:20.657Z,31.7
2023-04-03T09:25:15.907Z,31.7
2023-04-03T09:30:19.126Z,31.6
2023-04-03T09:35:23.407Z,31.6
2023-04-03T09:40:18.974Z,31.5
2023-04-03T09:45:18.885Z,31.5
2023-04-03T09:50:18.948Z,31.5
2023-04-03T09:55:18.909Z,31.5
2023-04-03T10:00:18.898Z,31.5
2023-04-03T10:05:16.142Z,31.5
2023-04-03T10:10:18.955Z,31.5
2023-04-03T10:15:18.925Z,31.5
2023-04-03T10:20:16.004Z,31.5
2023-04-03T10:25:18.999Z,31.5
2023-04-03T10:30:16.054Z,31.6
2023-04-03T10:35:15.980Z,31.7
2023-04-03T10:40:18.926Z,31.7
2023-04-03T10:45:15.968Z,31.9
2023-04-03T10:50:18.929Z,31.9
2023-04-03T10:55:18.928Z,32.0
2023-04-03T11:00:18.925Z,32.1
2023-04-03T11:05:16.009Z,32.2
2023-04-03T11:10:18.953Z,32.3
2023-04-03T11:15:16.037Z,32.4
2023-04-03T11:20:19.057Z,32.5
2023-04-03T11:25:16.000Z,32.7
2023-04-03T11:30:19.015Z,32.8
2023-04-03T11:35:18.968Z,33.0
2023-04-03T11:40:16.057Z,33.3
2023-04-03T11:45:19.023Z,33.6
2023-04-03T11:50:18.954Z,34.0
2023-04-03T11:55:18.922Z,34.3
2023-04-03T12:00:19.005Z,34.6
2023-04-03T12:05:18.994Z,34.9
2023-04-03T12:10:30.450Z,35.2
2023-04-03T12:15:18.996Z,35.4
2023-04-03T12:20:16.036Z,35.7
2023-04-03T12:25:16.039Z,35.9
2023-04-03T12:30:19.093Z,36.3
2023-04-03T12:35:18.995Z,36.7
2023-04-03T12:40:16.066Z,37.2
2023-04-03T12:45:19.066Z,38.3
2023-04-03T12:50:16.085Z,39.0
2023-04-03T12:55:19.093Z,39.7
2023-04-03T13:00:16.014Z,40.1
2023-04-03T13:05:19.039Z,40.6
2023-04-03T13:10:19.013Z,40.7
2023-04-03T13:15:16.064Z,41.1
2023-04-03T13:20:19.041Z,41.2
2023-04-03T13:25:16.034Z,41.8
2023-04-03T13:30:16.068Z,42.4
2023-04-03T13:35:19.035Z,41.7
2023-04-03T13:40:16.172Z,42.0
2023-04-03T13:45:19.102Z,42.5
2023-04-03T13:50:19.069Z,43.3
2023-04-03T13:55:25.395Z,42.3
2023-04-03T14:00:18.998Z,43.1
2023-04-03T14:05:19.072Z,43.3
2023-04-03T14:10:19.036Z,43.8
2023-04-03T14:15:19.118Z,43.8
2023-04-03T14:20:19.015Z,43.5
2023-04-03T14:25:16.161Z,44.7
2023-04-03T14:30:19.112Z,45.3
2023-04-03T14:35:19.160Z,45.8
2023-04-03T14:40:16.151Z,45.6
2023-04-03T14:45:19.194Z,45.8
2023-04-03T14:50:19.125Z,46.9
2023-04-03T14:55:19.070Z,47.4
2023-04-03T15:00:19.105Z,47.4
2023-04-03T15:05:16.174Z,47.6
2023-04-03T15:10:16.186Z,47.2
2023-04-03T15:15:19.122Z,48.6
2023-04-03T15:20:19.170Z,48.0
2023-04-03T15:25:19.167Z,48.2
2023-04-03T15:30:19.090Z,48.9
2023-04-03T15:35:16.200Z,48.6
2023-04-03T15:40:19.122Z,48.8
2023-04-03T15:45:16.182Z,49.5
2023-04-03T15:50:16.178Z,49.7
2023-04-03T15:55:16.149Z,49.6
2023-04-03T16:00:19.148Z,50.1
2023-04-03T16:05:19.215Z,50.2
2023-04-03T16:10:19.165Z,50.0
2023-04-03T16:15:19.096Z,51.1
2023-04-03T16:20:19.133Z,51.5
2023-04-03T16:25:19.097Z,51.0
2023-04-03T16:30:19.093Z,51.1
2023-04-03T16:35:16.115Z,51.5
2023-04-03T16:40:19.160Z,52.1
2023-04-03T16:45:16.005Z,51.1
2023-04-03T16:50:16.276Z,52.1
2023-04-03T16:55:16.193Z,52.8
2023-04-03T17:00:19.197Z,51.9
2023-04-03T17:05:16.231Z,52.7
2023-04-03T17:10:16.216Z,52.5
2023-04-03T17:15:19.186Z,51.9
2023-04-03T17:20:16.206Z,51.9
2023-04-03T17:25:16.168Z,51.9
2023-04-03T17:30:16.201Z,53.1
2023-04-03T17:35:16.197Z,53.1
2023-04-03T17:40:19.377Z,53.5
2023-04-03T17:45:16.220Z,53.6
2023-04-03T17:50:16.256Z,52.8
2023-04-03T17:55:19.173Z,53.3
2023-04-03T18:00:19.218Z,53.5
2023-04-03T18:05:19.205Z,53.5
2023-04-03T18:10:19.238Z,53.0
2023-04-03T18:15:19.172Z,52.9
2023-04-03T18:20:19.191Z,53.2
2023-04-03T18:25:16.219Z,53.3
2023-04-03T18:30:19.214Z,53.2
2023-04-03T18:35:16.220Z,53.3
2023-04-03T18:40:16.212Z,53.5
2023-04-03T18:45:16.254Z,53.8
2023-04-03T18:50:16.295Z,53.9
2023-04-03T18:55:19.248Z,54.4
2023-04-03T19:00:19.233Z,54.6
2023-04-03T19:05:19.222Z,53.6
2023-04-03T19:10:19.215Z,52.9
2023-04-03T19:15:16.233Z,53.8
2023-04-03T19:20:16.412Z,54.2
2023-04-03T19:25:16.241Z,53.6
2023-04-03T19:30:16.234Z,52.8
2023-04-03T19:35:16.288Z,52.8
2023-04-03T19:40:19.193Z,52.9
2023-04-03T19:45:19.237Z,53.0
2023-04-03T19:50:16.294Z,52.8
2023-04-03T19:55:19.237Z,53.0
2023-04-03T20:00:19.256Z,53.2
2023-04-03T20:05:19.234Z,53.2
2023-04-03T20:10:19.230Z,53.3
2023-04-03T20:15:19.255Z,53.9
2023-04-03T20:20:19.230Z,54.0
2023-04-03T20:25:23.967Z,54.1
2023-04-03T20:30:19.238Z,53.5
2023-04-03T20:35:19.252Z,53.7
2023-04-03T20:40:16.144Z,54.0
2023-04-03T20:45:19.362Z,53.0
2023-04-03T20:50:19.329Z,53.3
2023-04-03T20:55:19.239Z,53.2
2023-04-03T21:00:19.254Z,53.1
2023-04-03T21:05:19.244Z,53.6
2023-04-03T21:10:19.281Z,54.0
2023-04-03T21:15:19.242Z,53.8
2023-04-03T21:20:16.459Z,53.5
2023-04-03T21:25:19.289Z,53.2
2023-04-03T21:30:19.333Z,53.1
2023-04-03T21:35:19.256Z,53.2
2023-04-03T21:40:19.225Z,53.5
2023-04-03T21:45:16.381Z,53.0
2023-04-03T21:50:16.320Z,53.2
2023-04-03T21:55:19.282Z,53.3
2023-04-03T22:00:19.442Z,53.1
2023-04-03T22:05:19.402Z,53.1
2023-04-03T22:10:16.380Z,53.1
2023-04-03T22:15:19.333Z,53.2
2023-04-03T22:20:16.357Z,53.1
2023-04-03T22:25:19.315Z,53.0
2023-04-03T22:30:16.333Z,52.8
2023-04-03T22:35:19.344Z,52.7
2023-04-03T22:40:16.386Z,52.8
2023-04-03T22:45:19.337Z,52.9
2023-04-03T22:50:19.465Z,52.9
2023-04-03T22:55:19.891Z,52.8
2023-04-03T23:00:19.302Z,52.6
2023-04-03T23:05:19.320Z,52.4
2023-04-03T23:10:19.314Z,52.2
2023-04-03T23:15:19.368Z,52.0
2023-04-03T23:20:16.344Z,51.8
2023-04-03T23:25:16.353Z,51.6
2023-04-03T23:30:19.357Z,51.4
2023-04-03T23:35:19.397Z,51.3
2023-04-03T23:40:19.312Z,51.1
2023-04-03T23:45:16.338Z,51.0
2023-04-03T23:50:16.394Z,50.9
2023-04-03T23:55:19.427Z,50.8
